createdAt,value
2018-01-19T00:00:34.516Z,21.94
2018-01-19T00:01:34.460Z,20.70
2018-01-19T00:02:34.393Z,21.56
2018-01-19T00:03:34.332Z,25.55
2018-01-19T00:04:34.269Z,27.64
2018-01-19T00:05:34.192Z,25.07
2018-01-19T00:06:34.131Z,21.47
2018-01-19T00:07:34.067Z,23.84
2018-01-19T00:08:34.006Z,22.51
2018-01-19T00:09:33.948Z,23.55
2018-01-19T00:10:33.885Z,29.25
2018-01-19T00:11:33.822Z,22.60
2018-01-19T00:12:33.761Z,28.78
2018-01-19T00:13:33.697Z,30.49
2018-01-19T00:14:33.635Z,35.42
2018-01-19T00:15:33.575Z,27.73
2018-01-19T00:16:33.513Z,27.45
2018-01-19T00:17:33.452Z,26.12
2018-01-19T00:18:33.389Z,22.89
2018-01-19T00:19:33.329Z,21.28
2018-01-19T00:20:33.265Z,21.75
2018-01-19T00:21:33.206Z,21.84
2018-01-19T00:22:33.145Z,24.03
2018-01-19T00:23:33.082Z,19.95
2018-01-19T00:24:33.020Z,17.85
2018-01-19T00:25:32.957Z,17.66
2018-01-19T00:26:32.897Z,16.62
2018-01-19T00:27:32.835Z,16.52
2018-01-19T00:28:32.774Z,16.14
2018-01-19T00:29:32.713Z,16.61
2018-01-19T00:30:32.650Z,15.85
2018-01-19T00:31:32.588Z,15.66
2018-01-19T00:32:32.526Z,15.76
2018-01-19T00:33:32.464Z,15.76
2018-01-19T00:34:32.403Z,15.95
2018-01-19T00:35:32.344Z,15.56
2018-01-19T00:36:32.281Z,15.28
2018-01-19T00:37:32.218Z,17.08
2018-01-19T00:38:32.158Z,17.18
2018-01-19T00:39:32.097Z,15.76
2018-01-19T00:40:32.030Z,16.33
2018-01-19T00:41:31.970Z,17.75
2018-01-19T00:42:31.909Z,16.52
2018-01-19T00:43:31.845Z,19.27
2018-01-19T00:44:31.783Z,22.50
2018-01-19T00:45:31.721Z,20.59
2018-01-19T00:46:31.661Z,18.79
2018-01-19T00:47:31.598Z,19.26
2018-01-19T00:48:31.538Z,22.67
2018-01-19T00:49:31.473Z,21.73
2018-01-19T00:50:31.413Z,19.54
2018-01-19T00:51:31.350Z,18.88
2018-01-19T00:52:31.287Z,18.60
2018-01-19T00:53:31.225Z,19.17
2018-01-19T00:54:31.163Z,20.50
2018-01-19T00:55:31.101Z,19.92
2018-01-19T00:56:31.042Z,20.02
2018-01-19T00:57:30.976Z,22.11
2018-01-19T00:58:30.914Z,22.01
2018-01-19T00:59:30.853Z,22.96
2018-01-19T01:00:30.789Z,23.34
2018-01-19T01:01:30.728Z,25.32
2018-01-19T01:02:30.666Z,22.30
2018-01-19T01:03:30.603Z,22.09
2018-01-19T01:04:30.542Z,20.86
2018-01-19T01:05:30.478Z,21.24
2018-01-19T01:06:30.415Z,22.85
2018-01-19T01:07:30.354Z,21.72
2018-01-19T01:08:30.291Z,22.66
2018-01-19T01:09:30.229Z,21.43
2018-01-19T01:10:30.166Z,20.39
2018-01-19T01:11:30.107Z,22.66
2018-01-19T01:12:30.040Z,22.66
2018-01-19T01:13:29.979Z,22.57
2018-01-19T01:14:29.918Z,22.00
2018-01-19T01:15:29.854Z,24.75
2018-01-19T01:16:29.790Z,21.91
2018-01-19T01:17:29.729Z,22.00
2018-01-19T01:18:29.667Z,22.09
2018-01-19T01:19:29.605Z,21.05
2018-01-19T01:20:29.541Z,21.34
2018-01-19T01:21:29.479Z,20.48
2018-01-19T01:22:29.416Z,20.29
2018-01-19T01:23:29.355Z,20.48
2018-01-19T01:24:29.295Z,20.86
2018-01-19T01:25:29.232Z,20.20
2018-01-19T01:26:29.167Z,20.01
2018-01-19T01:27:29.105Z,19.73
2018-01-19T01:28:29.045Z,20.39
2018-01-19T01:29:28.984Z,21.24
2018-01-19T01:30:28.919Z,21.43
2018-01-19T01:31:28.854Z,21.15
2018-01-19T01:32:28.792Z,20.29
2018-01-19T01:33:28.731Z,21.05
2018-01-19T01:34:28.667Z,20.96
2018-01-19T01:35:28.604Z,20.10
2018-01-19T01:36:28.541Z,19.92
2018-01-19T01:37:28.481Z,19.92
2018-01-19T01:38:28.417Z,19.44
2018-01-19T01:39:28.355Z,20.29
2018-01-19T01:40:28.291Z,20.29
2018-01-19T01:41:28.231Z,20.10
2018-01-19T01:42:28.173Z,20.57
2018-01-19T01:43:28.114Z,19.92
2018-01-19T01:44:28.043Z,19.63
2018-01-19T01:45:27.980Z,20.01
2018-01-19T01:46:27.918Z,19.82
2018-01-19T01:47:27.856Z,20.10
2018-01-19T01:48:27.793Z,19.92
2018-01-19T01:49:27.731Z,20.29
2018-01-19T01:50:27.668Z,20.10
2018-01-19T01:51:27.607Z,20.10
2018-01-19T01:52:27.544Z,20.20
2018-01-19T01:53:27.481Z,20.20
2018-01-19T01:54:27.420Z,20.10
2018-01-19T01:55:27.357Z,20.29
2018-01-19T01:56:27.297Z,20.39
2018-01-19T01:57:27.232Z,19.92
2018-01-19T01:58:27.171Z,20.10
2018-01-19T01:59:27.111Z,20.10
2018-01-19T02:00:27.044Z,20.10
2018-01-19T02:01:26.982Z,19.92
2018-01-19T02:02:26.920Z,20.20
2018-01-19T02:03:26.859Z,20.29
2018-01-19T02:04:26.798Z,20.20
2018-01-19T02:05:26.735Z,20.29
2018-01-19T02:06:26.672Z,20.10
2018-01-19T02:07:26.610Z,20.10
2018-01-19T02:08:26.549Z,20.01
2018-01-19T02:09:26.487Z,19.92
2018-01-19T02:10:26.427Z,20.10
2018-01-19T02:11:26.360Z,20.01
2018-01-19T02:12:26.297Z,20.20
2018-01-19T02:13:26.242Z,20.10
2018-01-19T02:14:26.173Z,20.39
2018-01-19T02:15:26.111Z,19.92
2018-01-19T02:16:26.051Z,20.20
2018-01-19T02:17:25.986Z,20.10
2018-01-19T02:18:25.927Z,20.10
2018-01-19T02:19:25.862Z,20.29
2018-01-19T02:20:25.799Z,20.10
2018-01-19T02:21:25.738Z,20.39
2018-01-19T02:22:25.676Z,20.29
2018-01-19T02:23:25.616Z,20.57
2018-01-19T02:24:25.551Z,20.57
2018-01-19T02:25:25.491Z,20.29
2018-01-19T02:26:25.428Z,20.39
2018-01-19T02:27:25.366Z,20.57
2018-01-19T02:28:25.307Z,20.39
2018-01-19T02:29:25.243Z,20.39
2018-01-19T02:30:25.182Z,20.48
2018-01-19T02:31:25.129Z,20.48
2018-01-19T02:32:25.054Z,20.48
2018-01-19T02:33:24.991Z,20.20
2018-01-19T02:34:24.932Z,20.01
2018-01-19T02:35:24.870Z,19.54
2018-01-19T02:36:24.807Z,19.92
2018-01-19T02:37:24.754Z,19.35
2018-01-19T02:38:24.685Z,19.44
2018-01-19T02:39:24.626Z,18.88
2018-01-19T02:40:24.564Z,18.77
2018-01-19T02:41:24.501Z,18.77
2018-01-19T02:42:24.437Z,21.06
2018-01-19T02:43:24.377Z,22.67
2018-01-19T02:44:24.311Z,29.22
2018-01-19T02:45:24.249Z,31.02
2018-01-19T02:46:24.188Z,26.66
2018-01-19T02:47:24.125Z,24.57
2018-01-19T02:48:24.062Z,22.86
2018-01-19T02:49:24.002Z,25.90
2018-01-19T02:50:23.938Z,27.14
2018-01-19T02:51:23.879Z,25.13
2018-01-19T02:52:23.815Z,28.94
2018-01-19T02:53:23.751Z,27.70
2018-01-19T02:54:23.691Z,28.37
2018-01-19T02:55:23.627Z,24.76
2018-01-19T02:56:23.572Z,25.60
2018-01-19T02:57:23.502Z,28.27
2018-01-19T02:58:23.442Z,24.75
2018-01-19T02:59:23.379Z,28.45
2018-01-19T03:00:23.316Z,25.70
2018-01-19T03:01:23.258Z,27.40
2018-01-19T03:02:23.194Z,25.51
2018-01-19T03:03:23.132Z,23.99
2018-01-19T03:04:23.069Z,24.75
2018-01-19T03:05:23.010Z,24.28
2018-01-19T03:06:22.946Z,24.18
2018-01-19T03:07:22.882Z,23.43
2018-01-19T03:08:22.820Z,23.14
2018-01-19T03:09:22.756Z,29.68
2018-01-19T03:10:22.697Z,28.08
2018-01-19T03:11:22.634Z,25.89
2018-01-19T03:12:22.571Z,24.37
2018-01-19T03:13:22.568Z,24.56
2018-01-19T03:14:22.447Z,29.02
2018-01-19T03:15:22.385Z,30.25
2018-01-19T03:16:22.327Z,25.51
2018-01-19T03:17:22.261Z,30.54
2018-01-19T03:18:22.200Z,25.51
2018-01-19T03:19:22.136Z,31.77
2018-01-19T03:20:22.075Z,26.27
2018-01-19T03:21:22.013Z,42.68
2018-01-19T03:22:21.950Z,57.50
2018-01-19T03:23:21.888Z,50.20
2018-01-19T03:24:21.826Z,44.12
2018-01-19T03:25:21.762Z,42.89
2018-01-19T03:26:21.702Z,36.34
2018-01-19T03:27:21.640Z,39.36
2018-01-19T03:28:21.576Z,37.93
2018-01-19T03:29:21.516Z,36.63
2018-01-19T03:30:21.456Z,33.40
2018-01-19T03:31:21.393Z,30.54
2018-01-19T03:32:21.356Z,32.06
2018-01-19T03:33:21.266Z,41.37
2018-01-19T03:34:21.204Z,39.07
2018-01-19T03:35:21.142Z,52.47
2018-01-19T03:36:21.078Z,42.70
2018-01-19T03:37:21.016Z,34.33
2018-01-19T03:38:20.954Z,37.27
2018-01-19T03:39:20.893Z,34.05
2018-01-19T03:40:20.828Z,32.43
2018-01-19T03:41:20.767Z,29.40
2018-01-19T03:42:20.707Z,38.22
2018-01-19T03:43:20.649Z,44.01
2018-01-19T03:44:20.578Z,33.86
2018-01-19T03:45:20.517Z,32.43
2018-01-19T03:46:20.455Z,35.18
2018-01-19T03:47:20.392Z,31.01
2018-01-19T03:48:20.333Z,31.77
2018-01-19T03:49:20.270Z,30.54
2018-01-19T03:50:20.207Z,30.16
2018-01-19T03:51:20.146Z,27.59
2018-01-19T03:52:20.081Z,28.07
2018-01-19T03:53:20.024Z,26.84
2018-01-19T03:54:19.958Z,24.66
2018-01-19T03:55:19.904Z,29.97
2018-01-19T03:56:19.833Z,38.12
2018-01-19T03:57:19.774Z,46.37
2018-01-19T03:58:19.710Z,42.96
2018-01-19T03:59:19.651Z,40.21
2018-01-19T04:00:19.582Z,44.10
2018-01-19T04:01:19.522Z,48.84
2018-01-19T04:02:19.458Z,47.53
2018-01-19T04:03:19.396Z,39.57
2018-01-19T04:04:19.335Z,44.48
2018-01-19T04:05:19.271Z,39.26
2018-01-19T04:06:19.210Z,51.78
2018-01-19T04:07:19.147Z,53.96
2018-01-19T04:08:19.084Z,51.97
2018-01-19T04:09:19.021Z,51.87
2018-01-19T04:10:18.959Z,51.97
2018-01-19T04:11:18.897Z,53.80
2018-01-19T04:12:18.838Z,53.49
2018-01-19T04:13:18.773Z,50.07
2018-01-19T04:14:18.719Z,58.26
2018-01-19T04:15:18.649Z,59.56
2018-01-19T04:16:18.587Z,58.36
2018-01-19T04:17:18.524Z,65.66
2018-01-19T04:18:18.461Z,60.92
2018-01-19T04:19:18.400Z,57.79
2018-01-19T04:20:18.342Z,55.98
2018-01-19T04:21:18.273Z,54.85
2018-01-19T04:22:18.211Z,53.49
2018-01-19T04:23:18.150Z,52.66
2018-01-19T04:24:18.091Z,55.10
2018-01-19T04:25:18.023Z,54.66
2018-01-19T04:26:17.963Z,55.10
2018-01-19T04:27:17.899Z,58.92
2018-01-19T04:28:17.837Z,58.92
2018-01-19T04:29:17.775Z,52.28
2018-01-19T04:30:17.717Z,53.11
2018-01-19T04:31:17.649Z,53.42
2018-01-19T04:32:17.587Z,47.63
2018-01-19T04:33:17.524Z,46.66
2018-01-19T04:34:17.463Z,51.40
2018-01-19T04:35:17.404Z,45.24
2018-01-19T04:36:17.338Z,47.23
2018-01-19T04:37:17.276Z,40.59
2018-01-19T04:38:17.221Z,39.36
2018-01-19T04:39:17.157Z,37.27
2018-01-19T04:40:17.089Z,39.17
2018-01-19T04:41:17.024Z,38.69
2018-01-19T04:42:16.961Z,36.97
2018-01-19T04:43:16.901Z,49.79
2018-01-19T04:44:16.842Z,44.76
2018-01-19T04:45:16.774Z,60.60
2018-01-19T04:46:16.713Z,52.83
2018-01-19T04:47:16.650Z,53.49
2018-01-19T04:48:16.586Z,53.18
2018-01-19T04:49:16.523Z,50.15
2018-01-19T04:50:16.461Z,45.97
2018-01-19T04:51:16.400Z,48.06
2018-01-19T04:52:16.336Z,51.37
2018-01-19T04:53:16.272Z,46.35
2018-01-19T04:54:16.214Z,48.44
2018-01-19T04:55:16.149Z,48.54
2018-01-19T04:56:16.085Z,62.47
2018-01-19T04:57:16.022Z,53.56
2018-01-19T04:58:15.960Z,55.93
2018-01-19T04:59:15.896Z,54.69
2018-01-19T05:00:15.834Z,48.72
2018-01-19T05:01:15.771Z,50.99
2018-01-19T05:02:15.709Z,57.16
2018-01-19T05:03:15.648Z,54.03
2018-01-19T05:04:15.584Z,44.74
2018-01-19T05:05:15.520Z,43.04
2018-01-19T05:06:15.459Z,40.85
2018-01-19T05:07:15.395Z,45.59
2018-01-19T05:08:15.328Z,51.18
2018-01-19T05:09:15.270Z,47.68
2018-01-19T05:10:15.205Z,45.50
2018-01-19T05:11:15.142Z,43.49
2018-01-19T05:12:15.080Z,47.49
2018-01-19T05:13:15.016Z,45.86
2018-01-19T05:14:14.955Z,45.00
2018-01-19T05:15:14.891Z,48.54
2018-01-19T05:16:14.827Z,42.18
2018-01-19T05:17:14.764Z,45.21
2018-01-19T05:18:14.704Z,40.93
2018-01-19T05:19:14.641Z,40.28
2018-01-19T05:20:14.576Z,42.25
2018-01-19T05:21:14.514Z,43.11
2018-01-19T05:22:14.450Z,45.31
2018-01-19T05:23:14.388Z,44.84
2018-01-19T05:24:14.322Z,47.37
2018-01-19T05:25:14.261Z,49.27
2018-01-19T05:26:14.199Z,48.22
2018-01-19T05:27:14.134Z,45.38
2018-01-19T05:28:14.072Z,46.04
2018-01-19T05:29:14.010Z,42.25
2018-01-19T05:30:13.946Z,42.82
2018-01-19T05:31:13.883Z,41.40
2018-01-19T05:32:13.819Z,46.42
2018-01-19T05:33:13.757Z,42.07
2018-01-19T05:34:13.693Z,48.51
2018-01-19T05:35:13.632Z,42.82
2018-01-19T05:36:13.566Z,41.78
2018-01-19T05:37:13.505Z,41.78
2018-01-19T05:38:13.442Z,43.01
2018-01-19T05:39:13.379Z,43.20
2018-01-19T05:40:13.318Z,41.31
2018-01-19T05:41:13.252Z,37.42
2018-01-19T05:42:13.193Z,36.00
2018-01-19T05:43:13.129Z,36.66
2018-01-19T05:44:13.063Z,35.72
2018-01-19T05:45:13.004Z,39.79
2018-01-19T05:46:12.940Z,40.26
2018-01-19T05:47:12.875Z,44.62
2018-01-19T05:48:12.812Z,37.61
2018-01-19T05:49:12.749Z,36.57
2018-01-19T05:50:12.685Z,39.89
2018-01-19T05:51:12.621Z,47.09
2018-01-19T05:52:12.561Z,40.08
2018-01-19T05:53:12.497Z,44.62
2018-01-19T05:54:12.433Z,53.91
2018-01-19T05:55:12.376Z,51.73
2018-01-19T05:56:12.317Z,50.05
2018-01-19T05:57:12.246Z,48.60
2018-01-19T05:58:12.191Z,50.90
2018-01-19T05:59:12.121Z,49.65
2018-01-19T06:00:12.057Z,54.38
2018-01-19T06:01:11.994Z,51.16
2018-01-19T06:02:11.931Z,50.24
2018-01-19T06:03:11.891Z,53.81
2018-01-19T06:04:11.806Z,54.57
2018-01-19T06:05:11.743Z,55.71
2018-01-19T06:06:11.680Z,56.66
2018-01-19T06:07:11.619Z,51.45
2018-01-19T06:08:11.568Z,51.64
2018-01-19T06:09:11.490Z,50.97
2018-01-19T06:10:11.428Z,57.13
2018-01-19T06:11:11.365Z,57.44
2018-01-19T06:12:11.349Z,58.48
2018-01-19T06:13:11.238Z,58.11
2018-01-19T06:14:11.175Z,57.89
2018-01-19T06:15:11.115Z,52.39
2018-01-19T06:16:11.051Z,57.06
2018-01-19T06:17:10.987Z,57.04
2018-01-19T06:18:10.931Z,52.70
2018-01-19T06:19:10.865Z,51.54
2018-01-19T06:20:10.797Z,47.66
2018-01-19T06:21:10.734Z,48.13
2018-01-19T06:22:10.673Z,50.97
2018-01-19T06:23:10.612Z,47.18
2018-01-19T06:24:10.546Z,48.60
2018-01-19T06:25:10.482Z,43.96
2018-01-19T06:26:10.420Z,41.31
2018-01-19T06:27:10.357Z,38.18
2018-01-19T06:28:10.293Z,40.26
2018-01-19T06:29:10.231Z,37.99
2018-01-19T06:30:10.168Z,39.03
2018-01-19T06:31:10.110Z,45.67
2018-01-19T06:32:10.040Z,51.26
2018-01-19T06:33:09.983Z,49.65
2018-01-19T06:34:09.919Z,41.78
2018-01-19T06:35:09.853Z,46.33
2018-01-19T06:36:09.790Z,42.82
2018-01-19T06:37:09.727Z,42.73
2018-01-19T06:38:09.663Z,48.60
2018-01-19T06:39:09.599Z,58.36
2018-01-19T06:40:09.536Z,53.81
2018-01-19T06:41:09.474Z,51.73
2018-01-19T06:42:09.413Z,43.11
2018-01-19T06:43:09.350Z,42.73
2018-01-19T06:44:09.284Z,41.97
2018-01-19T06:45:09.221Z,47.37
2018-01-19T06:46:09.157Z,42.82
2018-01-19T06:47:09.094Z,37.71
2018-01-19T06:48:09.032Z,47.94
2018-01-19T06:49:08.967Z,43.96
2018-01-19T06:50:08.907Z,39.70
2018-01-19T06:51:08.846Z,44.81
2018-01-19T06:52:08.776Z,40.26
2018-01-19T06:53:08.717Z,38.18
2018-01-19T06:54:08.651Z,40.55
2018-01-19T06:55:08.589Z,43.01
2018-01-19T06:56:08.525Z,47.09
2018-01-19T06:57:08.453Z,48.22
2018-01-19T06:58:08.401Z,43.87
2018-01-19T06:59:08.337Z,39.03
2018-01-19T07:00:08.273Z,41.78
2018-01-19T07:01:08.210Z,48.13
2018-01-19T07:02:08.147Z,43.58
2018-01-19T07:03:08.084Z,49.84
2018-01-19T07:04:08.020Z,49.55
2018-01-19T07:05:07.977Z,49.84
2018-01-19T07:06:07.894Z,46.42
2018-01-19T07:07:07.830Z,49.36
2018-01-19T07:08:07.766Z,46.69
2018-01-19T07:09:07.703Z,47.94
2018-01-19T07:10:07.641Z,56.18
2018-01-19T07:11:07.576Z,51.16
2018-01-19T07:12:07.513Z,51.45
2018-01-19T07:13:07.450Z,50.40
2018-01-19T07:14:07.385Z,54.67
2018-01-19T07:15:07.323Z,52.77
2018-01-19T07:16:07.260Z,54.76
2018-01-19T07:17:07.195Z,56.56
2018-01-19T07:18:07.134Z,53.72
2018-01-19T07:19:07.070Z,60.16
2018-01-19T07:20:07.006Z,55.24
2018-01-19T07:21:06.946Z,57.13
2018-01-19T07:22:06.880Z,55.05
2018-01-19T07:23:06.816Z,54.47
2018-01-19T07:24:06.753Z,56.09
2018-01-19T07:25:06.690Z,54.47
2018-01-19T07:26:06.625Z,59.41
2018-01-19T07:27:06.566Z,59.59
2018-01-19T07:28:06.504Z,61.11
2018-01-19T07:29:06.436Z,58.26
2018-01-19T07:30:06.374Z,55.24
2018-01-19T07:31:06.312Z,58.84
2018-01-19T07:32:06.250Z,59.41
2018-01-19T07:33:06.181Z,52.29
2018-01-19T07:34:06.118Z,55.05
2018-01-19T07:35:06.057Z,59.69
2018-01-19T07:36:05.991Z,58.84
2018-01-19T07:37:05.955Z,63.10
2018-01-19T07:38:05.866Z,61.21
2018-01-19T07:39:05.804Z,61.96
2018-01-19T07:40:05.742Z,59.59
2018-01-19T07:41:05.676Z,58.17
2018-01-19T07:42:05.614Z,55.90
2018-01-19T07:43:05.550Z,60.16
2018-01-19T07:44:05.485Z,60.64
2018-01-19T07:45:05.423Z,54.67
2018-01-19T07:46:05.360Z,54.47
2018-01-19T07:47:05.298Z,52.58
2018-01-19T07:48:05.233Z,50.12
2018-01-19T07:49:05.173Z,50.31
2018-01-19T07:50:05.109Z,48.51
2018-01-19T07:51:05.045Z,46.42
2018-01-19T07:52:04.980Z,56.09
2018-01-19T07:53:04.916Z,51.45
2018-01-19T07:54:04.853Z,52.58
2018-01-19T07:55:04.790Z,50.97
2018-01-19T07:56:04.726Z,50.88
2018-01-19T07:57:04.663Z,48.51
2018-01-19T07:58:04.602Z,43.01
2018-01-19T07:59:04.539Z,42.07
2018-01-19T08:00:04.475Z,39.32
2018-01-19T08:01:04.412Z,39.32
2018-01-19T08:02:04.348Z,37.99
2018-01-19T08:03:04.285Z,36.57
2018-01-19T08:04:04.220Z,36.95
2018-01-19T08:05:04.158Z,37.71
2018-01-19T08:06:04.096Z,39.89
2018-01-19T08:07:04.033Z,39.60
2018-01-19T08:08:03.969Z,37.61
2018-01-19T08:09:03.906Z,36.19
2018-01-19T08:10:03.843Z,37.33
2018-01-19T08:11:03.786Z,37.23
2018-01-19T08:12:03.716Z,36.19
2018-01-19T08:13:03.654Z,36.10
2018-01-19T08:14:03.590Z,35.91
2018-01-19T08:15:03.529Z,35.24
2018-01-19T08:16:03.464Z,35.91
2018-01-19T08:17:03.401Z,36.29
2018-01-19T08:18:03.338Z,36.66
2018-01-19T08:19:03.276Z,35.91
2018-01-19T08:20:03.215Z,35.91
2018-01-19T08:21:03.151Z,35.62
2018-01-19T08:22:03.088Z,38.65
2018-01-19T08:23:03.026Z,39.51
2018-01-19T08:24:02.961Z,40.36
2018-01-19T08:25:02.900Z,42.44
2018-01-19T08:26:02.840Z,41.31
2018-01-19T08:27:02.772Z,42.82
2018-01-19T08:28:02.708Z,44.72
2018-01-19T08:29:02.646Z,42.82
2018-01-19T08:30:02.583Z,42.92
2018-01-19T08:31:02.570Z,42.82
2018-01-19T08:32:02.460Z,41.59
2018-01-19T08:33:02.394Z,41.78
2018-01-19T08:34:02.334Z,55.71
2018-01-19T08:35:02.272Z,58.65
2018-01-19T08:36:02.210Z,53.53
2018-01-19T08:37:02.145Z,50.49
2018-01-19T08:38:02.086Z,50.97
2018-01-19T08:39:02.019Z,48.32
2018-01-19T08:40:01.961Z,57.42
2018-01-19T08:41:01.893Z,58.93
2018-01-19T08:42:01.850Z,55.52
2018-01-19T08:43:01.768Z,54.67
2018-01-19T08:44:01.706Z,56.21
2018-01-19T08:45:01.642Z,55.62
2018-01-19T08:46:01.580Z,59.53
2018-01-19T08:47:01.518Z,61.52
2018-01-19T08:48:01.457Z,73.46
2018-01-19T08:49:01.395Z,73.75
2018-01-19T08:50:01.333Z,67.58
2018-01-19T08:51:01.270Z,69.01
2018-01-19T08:52:01.206Z,81.90
2018-01-19T08:53:01.144Z,72.71
2018-01-19T08:54:01.085Z,68.25
2018-01-19T08:55:01.021Z,72.04
2018-01-19T08:56:00.958Z,71.60
2018-01-19T08:57:00.898Z,72.93
2018-01-19T08:58:00.836Z,69.71
2018-01-19T08:59:00.774Z,83.94
2018-01-19T09:00:00.715Z,85.17
2018-01-19T09:01:00.652Z,86.78
2018-01-19T09:02:00.585Z,89.81
2018-01-19T09:03:00.529Z,92.85
2018-01-19T09:04:00.464Z,88.20
2018-01-19T09:05:00.401Z,85.17
2018-01-19T09:06:00.344Z,94.27
2018-01-19T09:07:00.278Z,88.58
2018-01-19T09:08:00.215Z,87.73
2018-01-19T09:09:00.157Z,88.01
2018-01-19T09:10:00.104Z,91.05
2018-01-19T09:11:00.033Z,86.87
2018-01-19T09:11:59.972Z,88.68
2018-01-19T09:12:59.904Z,89.91
2018-01-19T09:13:59.845Z,94.56
2018-01-19T09:14:59.783Z,90.00
2018-01-19T09:15:59.721Z,88.77
2018-01-19T09:16:59.660Z,87.35
2018-01-19T09:17:59.599Z,92.76
2018-01-19T09:18:59.535Z,92.47
2018-01-19T09:19:59.473Z,93.51
2018-01-19T09:20:59.412Z,91.99
2018-01-19T09:21:59.350Z,91.24
2018-01-19T09:22:59.289Z,91.80
2018-01-19T09:23:59.227Z,91.42
2018-01-19T09:24:59.163Z,91.19
2018-01-19T09:25:59.105Z,91.19
2018-01-19T09:26:59.041Z,94.65
2018-01-19T09:27:58.977Z,93.80
2018-01-19T09:28:58.916Z,93.99
2018-01-19T09:29:58.857Z,99.20
2018-01-19T09:30:58.793Z,96.08
2018-01-19T09:31:58.728Z,97.12
2018-01-19T09:32:58.672Z,95.79
2018-01-19T09:33:58.607Z,97.97
2018-01-19T09:34:58.549Z,99.30
2018-01-19T09:35:58.485Z,95.98
2018-01-19T09:36:58.425Z,96.73
2018-01-19T09:37:58.362Z,96.55
2018-01-19T09:38:58.302Z,99.01
2018-01-19T09:39:58.235Z,95.69
2018-01-19T09:40:58.173Z,99.58
2018-01-19T09:41:58.111Z,96.83
2018-01-19T09:42:58.049Z,98.73
2018-01-19T09:43:57.993Z,99.01
2018-01-19T09:44:57.926Z,98.73
2018-01-19T09:45:57.867Z,95.41
2018-01-19T09:46:57.801Z,99.99
2018-01-19T09:47:57.741Z,99.68
2018-01-19T09:48:57.677Z,97.69
2018-01-19T09:49:57.616Z,96.78
2018-01-19T09:50:57.572Z,98.21
2018-01-19T09:51:57.490Z,98.40
2018-01-19T09:52:57.429Z,96.69
2018-01-19T09:53:57.368Z,99.26
2018-01-19T09:54:57.305Z,99.73
2018-01-19T09:55:57.243Z,97.55
2018-01-19T09:56:57.183Z,99.06
2018-01-19T09:57:57.119Z,99.06
2018-01-19T09:58:57.060Z,98.78
2018-01-19T09:59:56.997Z,99.26
2018-01-19T10:00:56.935Z,98.78
2018-01-19T10:01:56.883Z,99.63
2018-01-19T10:02:56.812Z,98.78
2018-01-19T10:03:56.749Z,94.60
2018-01-19T10:04:56.687Z,99.63
2018-01-19T10:05:56.627Z,99.54
2018-01-19T10:06:56.579Z,97.26
2018-01-19T10:07:56.501Z,98.78
2018-01-19T10:08:56.439Z,98.78
2018-01-19T10:09:56.374Z,99.73
2018-01-19T10:10:56.314Z,97.64
2018-01-19T10:11:56.257Z,98.40
2018-01-19T10:12:56.190Z,99.91
2018-01-19T10:13:56.129Z,96.69
2018-01-19T10:14:56.069Z,99.06
2018-01-19T10:15:56.004Z,99.54
2018-01-19T10:16:55.944Z,99.82
2018-01-19T10:17:55.883Z,98.30
2018-01-19T10:18:55.897Z,99.99
2018-01-19T10:19:55.756Z,99.99
2018-01-19T10:20:55.697Z,95.36
2018-01-19T10:21:55.631Z,99.06
2018-01-19T10:22:55.572Z,98.59
2018-01-19T10:23:55.507Z,98.40
2018-01-19T10:24:55.445Z,99.99
2018-01-19T10:25:55.393Z,99.99
2018-01-19T10:26:55.330Z,98.78
2018-01-19T10:27:55.262Z,99.06
2018-01-19T10:28:55.197Z,99.99
2018-01-19T10:29:55.139Z,96.26
2018-01-19T10:30:55.076Z,99.68
2018-01-19T10:31:55.013Z,99.44
2018-01-19T10:32:54.953Z,99.54
2018-01-19T10:33:54.890Z,98.07
2018-01-19T10:34:54.829Z,96.17
2018-01-19T10:35:54.768Z,97.78
2018-01-19T10:36:54.707Z,97.60
2018-01-19T10:37:54.644Z,99.68
2018-01-19T10:38:54.585Z,98.21
2018-01-19T10:39:54.524Z,99.73
2018-01-19T10:40:54.464Z,98.40
2018-01-19T10:41:54.401Z,97.07
2018-01-19T10:42:54.343Z,98.87
2018-01-19T10:43:54.279Z,99.91
2018-01-19T10:44:54.219Z,98.02
2018-01-19T10:45:54.158Z,98.78
2018-01-19T10:46:54.097Z,97.92
2018-01-19T10:47:54.035Z,97.92
2018-01-19T10:48:53.975Z,98.59
2018-01-19T10:49:53.914Z,98.49
2018-01-19T10:50:53.849Z,99.99
2018-01-19T10:51:53.790Z,98.87
2018-01-19T10:52:53.728Z,98.97
2018-01-19T10:53:53.667Z,99.26
2018-01-19T10:54:53.604Z,99.63
2018-01-19T10:55:53.542Z,98.49
2018-01-19T10:56:53.481Z,99.63
2018-01-19T10:57:53.419Z,97.83
2018-01-19T10:58:53.361Z,98.40
2018-01-19T10:59:53.298Z,98.02
2018-01-19T11:00:53.254Z,99.06
2018-01-19T11:01:53.175Z,97.64
2018-01-19T11:02:53.113Z,94.60
2018-01-19T11:03:53.051Z,98.78
2018-01-19T11:04:52.991Z,99.06
2018-01-19T11:05:52.929Z,98.78
2018-01-19T11:06:52.867Z,97.17
2018-01-19T11:07:52.806Z,98.87
2018-01-19T11:08:52.745Z,99.16
2018-01-19T11:09:52.685Z,97.92
2018-01-19T11:10:52.633Z,98.40
2018-01-19T11:11:52.561Z,98.68
2018-01-19T11:12:52.499Z,99.82
2018-01-19T11:13:52.440Z,97.55
2018-01-19T11:14:52.376Z,95.74
2018-01-19T11:15:52.314Z,99.99
2018-01-19T11:16:52.253Z,97.64
2018-01-19T11:17:52.213Z,99.44
2018-01-19T11:18:52.132Z,97.55
2018-01-19T11:19:52.067Z,97.64
2018-01-19T11:20:52.009Z,97.74
2018-01-19T11:21:51.952Z,99.54
2018-01-19T11:22:51.900Z,97.45
2018-01-19T11:23:51.824Z,99.26
2018-01-19T11:24:51.762Z,98.78
2018-01-19T11:25:51.703Z,98.87
2018-01-19T11:26:51.640Z,99.99
2018-01-19T11:27:51.578Z,97.97
2018-01-19T11:28:51.517Z,98.49
2018-01-19T11:29:51.456Z,98.78
2018-01-19T11:30:51.394Z,98.49
2018-01-19T11:31:51.336Z,99.63
2018-01-19T11:32:51.272Z,99.44
2018-01-19T11:33:51.211Z,99.54
2018-01-19T11:34:51.150Z,99.99
2018-01-19T11:35:51.089Z,98.11
2018-01-19T11:36:51.027Z,99.99
2018-01-19T11:37:50.970Z,99.99
2018-01-19T11:38:50.904Z,99.91
2018-01-19T11:39:50.844Z,95.17
2018-01-19T11:40:50.783Z,99.99
2018-01-19T11:41:50.723Z,99.99
2018-01-19T11:42:50.662Z,99.16
2018-01-19T11:43:50.598Z,99.99
2018-01-19T11:44:50.539Z,99.82
2018-01-19T11:45:50.481Z,98.40
2018-01-19T11:46:50.416Z,99.99
2018-01-19T11:47:50.357Z,97.36
2018-01-19T11:48:50.295Z,99.99
2018-01-19T11:49:50.232Z,99.99
2018-01-19T11:50:50.173Z,99.26
2018-01-19T11:51:50.114Z,98.68
2018-01-19T11:52:50.050Z,99.99
2018-01-19T11:53:49.990Z,98.68
2018-01-19T11:54:49.928Z,99.99
2018-01-19T11:55:49.898Z,99.99
2018-01-19T11:56:49.803Z,98.87
2018-01-19T11:57:49.743Z,99.06
2018-01-19T11:58:49.690Z,98.40
2018-01-19T11:59:49.623Z,98.97
2018-01-19T12:00:49.560Z,99.82
2018-01-19T12:01:49.501Z,99.91
2018-01-19T12:02:49.439Z,98.07
2018-01-19T12:03:49.379Z,99.97
2018-01-19T12:04:49.317Z,98.64
2018-01-19T12:05:49.256Z,99.54
2018-01-19T12:06:49.200Z,98.97
2018-01-19T12:07:49.133Z,99.35
2018-01-19T12:08:49.073Z,99.16
2018-01-19T12:09:49.013Z,99.44
2018-01-19T12:10:48.974Z,99.44
2018-01-19T12:11:48.892Z,99.44
2018-01-19T12:12:48.830Z,99.21
2018-01-19T12:13:48.768Z,99.77
2018-01-19T12:14:48.708Z,99.68
2018-01-19T12:15:48.647Z,99.40
2018-01-19T12:16:48.586Z,99.30
2018-01-19T12:17:48.526Z,98.07
2018-01-19T12:18:48.466Z,99.26
2018-01-19T12:19:48.404Z,98.11
2018-01-19T12:20:48.343Z,98.21
2018-01-19T12:21:48.283Z,98.30
2018-01-19T12:22:48.222Z,98.11
2018-01-19T12:23:48.175Z,98.30
2018-01-19T12:24:48.109Z,99.40
2018-01-19T12:25:48.044Z,98.40
2018-01-19T12:26:47.979Z,98.21
2018-01-19T12:27:47.918Z,98.59
2018-01-19T12:28:47.859Z,97.64
2018-01-19T12:29:47.797Z,97.92
2018-01-19T12:30:47.735Z,99.44
2018-01-19T12:31:47.675Z,98.68
2018-01-19T12:32:47.614Z,99.06
2018-01-19T12:33:47.551Z,99.26
2018-01-19T12:34:47.492Z,98.73
2018-01-19T12:35:47.431Z,98.26
2018-01-19T12:36:47.368Z,99.02
2018-01-19T12:37:47.308Z,97.88
2018-01-19T12:38:47.249Z,99.30
2018-01-19T12:39:47.187Z,98.35
2018-01-19T12:40:47.126Z,98.30
2018-01-19T12:41:47.064Z,98.21
2018-01-19T12:42:47.003Z,98.40
2018-01-19T12:43:46.942Z,98.40
2018-01-19T12:44:46.881Z,98.87
2018-01-19T12:45:46.819Z,97.92
2018-01-19T12:46:46.760Z,98.02
2018-01-19T12:47:46.697Z,98.59
2018-01-19T12:48:46.636Z,98.40
2018-01-19T12:49:46.575Z,98.11
2018-01-19T12:50:46.515Z,99.16
2018-01-19T12:51:46.453Z,98.35